sensor_id;sensor_type;location;lat;lon;timestamp;pressure;altitude;pressure_sealevel;temperature;humidity
21011;BME280;10663;42.714;23.274;2023-09-18T00:00:28;95254.63;;;20.94;79.64
21011;BME280;10663;42.714;23.274;2023-09-18T00:01:59;95254.75;;;20.63;80.96
21011;BME280;10663;42.714;23.274;2023-09-18T00:03:30;95250.94;;;20.55;81.34
21011;BME280;10663;42.714;23.274;2023-09-18T00:05:01;95250.81;;;20.21;80.75
21011;BME280;10663;42.714;23.274;2023-09-18T00:06:32;95242.91;;;20.24;81.96
21011;BME280;10663;42.714;23.274;2023-09-18T00:08:03;95239.06;;;20.47;81.31
21011;BME280;10663;42.714;23.274;2023-09-18T00:09:34;95245.97;;;20.40;81.22
21011;BME280;10663;42.714;23.274;2023-09-18T00:11:04;95236.72;;;20.72;79.96
21011;BME280;10663;42.714;23.274;2023-09-18T00:12:37;95238.00;;;20.74;79.08
21011;BME280;10663;42.714;23.274;2023-09-18T00:14:09;95235.59;;;20.56;79.88
21011;BME280;10663;42.714;23.274;2023-09-18T00:15:40;95241.78;;;20.65;79.82
21011;BME280;10663;42.714;23.274;2023-09-18T00:17:11;95232.91;;;20.81;79.05
21011;BME280;10663;42.714;23.274;2023-09-18T00:18:42;95230.53;;;20.97;78.25
21011;BME280;10663;42.714;23.274;2023-09-18T00:20:14;95242.09;;;20.63;77.20
21011;BME280;10663;42.714;23.274;2023-09-18T00:21:47;95246.69;;;20.23;78.76
21011;BME280;10663;42.714;23.274;2023-09-18T00:23:18;95235.06;;;19.97;81.02
21011;BME280;10663;42.714;23.274;2023-09-18T00:24:49;95244.44;;;20.47;80.42
21011;BME280;10663;42.714;23.274;2023-09-18T00:26:20;95247.47;;;20.63;78.61
21011;BME280;10663;42.714;23.274;2023-09-18T00:27:55;95246.66;;;20.54;78.48
21011;BME280;10663;42.714;23.274;2023-09-18T00:29:25;95239.09;;;20.65;78.32
21011;BME280;10663;42.714;23.274;2023-09-18T00:30:56;95244.31;;;20.78;77.95
21011;BME280;10663;42.714;23.274;2023-09-18T00:32:27;95242.56;;;20.74;78.05
21011;BME280;10663;42.714;23.274;2023-09-18T00:33:58;95245.28;;;20.82;77.76
21011;BME280;10663;42.714;23.274;2023-09-18T00:35:29;95238.78;;;20.92;77.37
21011;BME280;10663;42.714;23.274;2023-09-18T00:36:59;95245.09;;;20.79;76.50
21011;BME280;10663;42.714;23.274;2023-09-18T00:38:30;95245.56;;;20.55;77.15
21011;BME280;10663;42.714;23.274;2023-09-18T00:40:01;95246.19;;;20.61;77.76
21011;BME280;10663;42.714;23.274;2023-09-18T00:41:32;95241.59;;;20.61;77.75
21011;BME280;10663;42.714;23.274;2023-09-18T00:43:02;95243.44;;;20.35;78.23
21011;BME280;10663;42.714;23.274;2023-09-18T00:44:33;95248.41;;;20.10;78.22
21011;BME280;10663;42.714;23.274;2023-09-18T00:46:04;95253.59;;;20.38;78.91
21011;BME280;10663;42.714;23.274;2023-09-18T00:47:35;95251.13;;;19.79;79.25
21011;BME280;10663;42.714;23.274;2023-09-18T00:49:07;95255.72;;;19.88;81.12
21011;BME280;10663;42.714;23.274;2023-09-18T00:50:38;95252.78;;;19.67;80.14
21011;BME280;10663;42.714;23.274;2023-09-18T00:52:10;95252.03;;;20.14;80.12
21011;BME280;10663;42.714;23.274;2023-09-18T00:53:44;95255.31;;;19.63;81.12
21011;BME280;10663;42.714;23.274;2023-09-18T00:55:15;95249.59;;;19.96;81.59
21011;BME280;10663;42.714;23.274;2023-09-18T00:56:46;95257.72;;;20.13;79.89
21011;BME280;10663;42.714;23.274;2023-09-18T00:58:18;95250.16;;;20.54;78.71
21011;BME280;10663;42.714;23.274;2023-09-18T00:59:49;95253.47;;;20.60;76.45
21011;BME280;10663;42.714;23.274;2023-09-18T01:01:21;95255.06;;;20.61;77.90
21011;BME280;10663;42.714;23.274;2023-09-18T01:02:53;95250.91;;;20.46;77.02
21011;BME280;10663;42.714;23.274;2023-09-18T01:04:24;95257.25;;;20.59;78.46
21011;BME280;10663;42.714;23.274;2023-09-18T01:05:56;95266.16;;;20.68;77.53
21011;BME280;10663;42.714;23.274;2023-09-18T01:07:27;95263.09;;;20.44;78.48
21011;BME280;10663;42.714;23.274;2023-09-18T01:08:58;95260.47;;;20.78;77.74
21011;BME280;10663;42.714;23.274;2023-09-18T01:10:33;95262.00;;;20.45;77.24
21011;BME280;10663;42.714;23.274;2023-09-18T01:12:13;95265.16;;;20.47;78.30
21011;BME280;10663;42.714;23.274;2023-09-18T01:13:59;95263.63;;;20.80;77.21
21011;BME280;10663;42.714;23.274;2023-09-18T01:15:35;95266.31;;;20.24;77.67
21011;BME280;10663;42.714;23.274;2023-09-18T01:17:09;95265.03;;;20.69;77.61
21011;BME280;10663;42.714;23.274;2023-09-18T01:18:48;95267.59;;;20.74;76.13
21011;BME280;10663;42.714;23.274;2023-09-18T01:20:19;95261.66;;;20.38;78.64
21011;BME280;10663;42.714;23.274;2023-09-18T01:21:49;95261.91;;;20.76;77.24
21011;BME280;10663;42.714;23.274;2023-09-18T01:23:21;95264.25;;;20.77;77.77
21011;BME280;10663;42.714;23.274;2023-09-18T01:24:52;95259.94;;;20.50;77.77
21011;BME280;10663;42.714;23.274;2023-09-18T01:26:22;95257.94;;;20.90;76.93
21011;BME280;10663;42.714;23.274;2023-09-18T01:27:53;95257.47;;;21.06;75.91
21011;BME280;10663;42.714;23.274;2023-09-18T01:29:24;95257.31;;;20.94;76.34
21011;BME280;10663;42.714;23.274;2023-09-18T01:30:55;95252.25;;;21.01;75.79
21011;BME280;10663;42.714;23.274;2023-09-18T01:32:26;95259.22;;;20.93;75.54
21011;BME280;10663;42.714;23.274;2023-09-18T01:33:58;95257.28;;;20.85;76.36
21011;BME280;10663;42.714;23.274;2023-09-18T01:35:30;95262.66;;;20.76;76.45
21011;BME280;10663;42.714;23.274;2023-09-18T01:37:02;95255.88;;;20.96;75.98
21011;BME280;10663;42.714;23.274;2023-09-18T01:38:34;95253.19;;;20.87;76.31
21011;BME280;10663;42.714;23.274;2023-09-18T01:40:07;95251.78;;;20.99;75.65
21011;BME280;10663;42.714;23.274;2023-09-18T01:41:38;95255.09;;;21.13;75.42
21011;BME280;10663;42.714;23.274;2023-09-18T01:43:10;95253.19;;;20.96;74.76
21011;BME280;10663;42.714;23.274;2023-09-18T01:44:41;95260.16;;;20.80;76.07
21011;BME280;10663;42.714;23.274;2023-09-18T01:46:12;95254.63;;;20.94;75.97
21011;BME280;10663;42.714;23.274;2023-09-18T01:47:43;95258.25;;;20.72;76.40
21011;BME280;10663;42.714;23.274;2023-09-18T01:49:14;95270.91;;;20.80;76.41
21011;BME280;10663;42.714;23.274;2023-09-18T01:50:45;95254.94;;;20.92;75.56
21011;BME280;10663;42.714;23.274;2023-09-18T01:52:16;95259.06;;;20.89;75.94
21011;BME280;10663;42.714;23.274;2023-09-18T01:53:46;95260.97;;;21.06;75.29
21011;BME280;10663;42.714;23.274;2023-09-18T01:55:17;95252.41;;;20.96;75.97
21011;BME280;10663;42.714;23.274;2023-09-18T01:56:48;95265.25;;;21.07;75.44
21011;BME280;10663;42.714;23.274;2023-09-18T01:58:19;95256.38;;;21.24;75.33
21011;BME280;10663;42.714;23.274;2023-09-18T01:59:50;95261.94;;;21.27;74.57
21011;BME280;10663;42.714;23.274;2023-09-18T02:01:21;95265.75;;;21.26;74.74
21011;BME280;10663;42.714;23.274;2023-09-18T02:02:51;95263.06;;;21.26;74.99
21011;BME280;10663;42.714;23.274;2023-09-18T02:04:22;95269.81;;;20.72;74.90
21011;BME280;10663;42.714;23.274;2023-09-18T02:05:55;95267.94;;;20.33;77.40
21011;BME280;10663;42.714;23.274;2023-09-18T02:07:27;95268.81;;;20.60;77.79
21011;BME280;10663;42.714;23.274;2023-09-18T02:08:58;95261.44;;;20.82;76.84
21011;BME280;10663;42.714;23.274;2023-09-18T02:10:29;95263.66;;;20.98;76.12
21011;BME280;10663;42.714;23.274;2023-09-18T02:12:00;95264.13;;;21.08;75.31
21011;BME280;10663;42.714;23.274;2023-09-18T02:13:30;95263.53;;;21.20;75.58
21011;BME280;10663;42.714;23.274;2023-09-18T02:15:01;95263.34;;;21.34;74.85
21011;BME280;10663;42.714;23.274;2023-09-18T02:16:38;95267.16;;;21.24;74.81
21011;BME280;10663;42.714;23.274;2023-09-18T02:18:11;95266.66;;;21.05;74.77
21011;BME280;10663;42.714;23.274;2023-09-18T02:19:42;95268.91;;;21.11;75.18
21011;BME280;10663;42.714;23.274;2023-09-18T02:21:20;95271.88;;;20.75;74.84
21011;BME280;10663;42.714;23.274;2023-09-18T02:22:51;95272.00;;;20.70;77.25
21011;BME280;10663;42.714;23.274;2023-09-18T02:24:22;95265.41;;;21.02;76.32
21011;BME280;10663;42.714;23.274;2023-09-18T02:25:57;95260.00;;;20.85;76.25
21011;BME280;10663;42.714;23.274;2023-09-18T02:27:28;95272.25;;;20.43;76.75
21011;BME280;10663;42.714;23.274;2023-09-18T02:28:59;95266.28;;;20.54;77.94
21011;BME280;10663;42.714;23.274;2023-09-18T02:30:30;95266.34;;;20.89;76.91
21011;BME280;10663;42.714;23.274;2023-09-18T02:32:01;95266.19;;;21.11;76.35
21011;BME280;10663;42.714;23.274;2023-09-18T02:33:31;95270.03;;;21.19;75.33
21011;BME280;10663;42.714;23.274;2023-09-18T02:35:03;95266.53;;;21.10;74.13
21011;BME280;10663;42.714;23.274;2023-09-18T02:36:34;95267.44;;;21.14;75.83
21011;BME280;10663;42.714;23.274;2023-09-18T02:38:05;95267.16;;;21.24;75.49
21011;BME280;10663;42.714;23.274;2023-09-18T02:39:36;95263.97;;;21.31;74.96
21011;BME280;10663;42.714;23.274;2023-09-18T02:41:06;95256.22;;;21.38;74.34
21011;BME280;10663;42.714;23.274;2023-09-18T02:42:37;95254.66;;;21.28;74.87
21011;BME280;10663;42.714;23.274;2023-09-18T02:44:08;95260.97;;;21.23;74.61
21011;BME280;10663;42.714;23.274;2023-09-18T02:45:39;95261.78;;;21.24;74.58
21011;BME280;10663;42.714;23.274;2023-09-18T02:47:11;95261.44;;;21.08;74.91
21011;BME280;10663;42.714;23.274;2023-09-18T02:48:41;95257.78;;;20.87;75.26
21011;BME280;10663;42.714;23.274;2023-09-18T02:50:12;95264.75;;;20.79;76.38
21011;BME280;10663;42.714;23.274;2023-09-18T02:51:43;95267.91;;;20.73;76.67
21011;BME280;10663;42.714;23.274;2023-09-18T02:53:18;95267.13;;;20.89;76.07
21011;BME280;10663;42.714;23.274;2023-09-18T02:54:50;95269.31;;;20.62;76.70
21011;BME280;10663;42.714;23.274;2023-09-18T02:56:20;95276.47;;;20.75;77.10
21011;BME280;10663;42.714;23.274;2023-09-18T02:57:52;95275.19;;;20.81;76.33
21011;BME280;10663;42.714;23.274;2023-09-18T02:59:22;95270.28;;;20.74;75.65
21011;BME280;10663;42.714;23.274;2023-09-18T03:00:53;95275.81;;;20.78;76.68
21011;BME280;10663;42.714;23.274;2023-09-18T03:02:25;95269.34;;;20.96;75.76
21011;BME280;10663;42.714;23.274;2023-09-18T03:03:56;95272.03;;;21.05;75.38
21011;BME280;10663;42.714;23.274;2023-09-18T03:05:26;95271.09;;;20.92;74.68
21011;BME280;10663;42.714;23.274;2023-09-18T03:06:58;95272.69;;;21.10;75.77
21011;BME280;10663;42.714;23.274;2023-09-18T03:08:28;95272.03;;;21.13;75.44
21011;BME280;10663;42.714;23.274;2023-09-18T03:10:01;95276.00;;;21.07;75.72
21011;BME280;10663;42.714;23.274;2023-09-18T03:11:32;95275.31;;;20.59;76.50
21011;BME280;10663;42.714;23.274;2023-09-18T03:13:03;95272.31;;;20.69;76.72
21011;BME280;10663;42.714;23.274;2023-09-18T03:14:35;95269.19;;;20.84;76.33
21011;BME280;10663;42.714;23.274;2023-09-18T03:16:05;95270.44;;;20.78;76.35
21011;BME280;10663;42.714;23.274;2023-09-18T03:17:37;95268.03;;;20.59;77.09
21011;BME280;10663;42.714;23.274;2023-09-18T03:19:08;95267.25;;;20.67;76.93
21011;BME280;10663;42.714;23.274;2023-09-18T03:20:38;95269.47;;;20.57;77.02
21011;BME280;10663;42.714;23.274;2023-09-18T03:22:09;95260.63;;;20.65;77.38
21011;BME280;10663;42.714;23.274;2023-09-18T03:23:40;95272.19;;;20.82;76.69
21011;BME280;10663;42.714;23.274;2023-09-18T03:25:10;95265.88;;;20.30;77.21
21011;BME280;10663;42.714;23.274;2023-09-18T03:26:41;95266.28;;;20.46;77.93
21011;BME280;10663;42.714;23.274;2023-09-18T03:28:12;95261.25;;;20.70;77.10
21011;BME280;10663;42.714;23.274;2023-09-18T03:29:43;95263.44;;;20.68;76.89
21011;BME280;10663;42.714;23.274;2023-09-18T03:31:14;95260.78;;;20.85;76.47
21011;BME280;10663;42.714;23.274;2023-09-18T03:32:44;95263.16;;;20.78;76.24
21011;BME280;10663;42.714;23.274;2023-09-18T03:34:16;95254.78;;;20.88;75.91
21011;BME280;10663;42.714;23.274;2023-09-18T03:35:48;95256.84;;;20.74;76.08
21011;BME280;10663;42.714;23.274;2023-09-18T03:37:21;95260.00;;;20.85;76.33
21011;BME280;10663;42.714;23.274;2023-09-18T03:38:51;95256.84;;;20.83;76.10
21011;BME280;10663;42.714;23.274;2023-09-18T03:40:22;95256.38;;;20.89;76.25
21011;BME280;10663;42.714;23.274;2023-09-18T03:41:53;95254.28;;;20.95;76.02
21011;BME280;10663;42.714;23.274;2023-09-18T03:43:24;95252.88;;;20.98;75.89
21011;BME280;10663;42.714;23.274;2023-09-18T03:44:55;95244.63;;;20.94;75.75
21011;BME280;10663;42.714;23.274;2023-09-18T03:46:26;95247.50;;;20.98;75.69
21011;BME280;10663;42.714;23.274;2023-09-18T03:47:57;95249.38;;;20.97;76.20
21011;BME280;10663;42.714;23.274;2023-09-18T03:49:28;95252.25;;;21.01;75.30
21011;BME280;10663;42.714;23.274;2023-09-18T03:50:59;95248.91;;;21.04;75.35
21011;BME280;10663;42.714;23.274;2023-09-18T03:52:29;95242.09;;;20.98;75.56
21011;BME280;10663;42.714;23.274;2023-09-18T03:54:00;95249.56;;;21.01;75.47
21011;BME280;10663;42.714;23.274;2023-09-18T03:55:31;95243.69;;;20.73;75.77
21011;BME280;10663;42.714;23.274;2023-09-18T03:57:01;95246.19;;;20.69;76.67
21011;BME280;10663;42.714;23.274;2023-09-18T03:58:32;95256.47;;;20.67;76.78
21011;BME280;10663;42.714;23.274;2023-09-18T04:00:03;95251.28;;;20.71;76.37
21011;BME280;10663;42.714;23.274;2023-09-18T04:01:43;95254.16;;;20.83;76.43
21011;BME280;10663;42.714;23.274;2023-09-18T04:03:14;95247.47;;;20.72;76.75
21011;BME280;10663;42.714;23.274;2023-09-18T04:04:45;95246.34;;;20.56;77.30
21011;BME280;10663;42.714;23.274;2023-09-18T04:06:16;95242.06;;;20.54;77.03
21011;BME280;10663;42.714;23.274;2023-09-18T04:07:49;95245.66;;;20.41;77.80
21011;BME280;10663;42.714;23.274;2023-09-18T04:09:20;95239.75;;;20.31;78.85
21011;BME280;10663;42.714;23.274;2023-09-18T04:10:51;95247.75;;;20.44;78.32
21011;BME280;10663;42.714;23.274;2023-09-18T04:12:25;95245.09;;;20.62;77.92
21011;BME280;10663;42.714;23.274;2023-09-18T04:13:57;95246.69;;;20.80;77.09
21011;BME280;10663;42.714;23.274;2023-09-18T04:15:28;95251.88;;;20.59;76.50
21011;BME280;10663;42.714;23.274;2023-09-18T04:17:01;95253.09;;;20.36;77.33
21011;BME280;10663;42.714;23.274;2023-09-18T04:18:32;95253.16;;;20.53;77.15
21011;BME280;10663;42.714;23.274;2023-09-18T04:20:03;95262.78;;;20.45;76.42
21011;BME280;10663;42.714;23.274;2023-09-18T04:21:35;95252.53;;;20.56;77.27
21011;BME280;10663;42.714;23.274;2023-09-18T04:23:25;95259.16;;;20.59;76.83
21011;BME280;10663;42.714;23.274;2023-09-18T04:24:56;95264.53;;;20.59;76.97
21011;BME280;10663;42.714;23.274;2023-09-18T04:26:27;95267.78;;;20.30;77.13
21011;BME280;10663;42.714;23.274;2023-09-18T04:28:02;95268.22;;;20.23;76.86
21011;BME280;10663;42.714;23.274;2023-09-18T04:29:33;95266.31;;;20.24;78.40
21011;BME280;10663;42.714;23.274;2023-09-18T04:31:04;95269.97;;;20.28;77.86
21011;BME280;10663;42.714;23.274;2023-09-18T04:32:37;95270.88;;;20.54;77.32
21011;BME280;10663;42.714;23.274;2023-09-18T04:34:08;95275.16;;;20.55;76.64
21011;BME280;10663;42.714;23.274;2023-09-18T04:35:39;95273.59;;;20.63;76.38
21011;BME280;10663;42.714;23.274;2023-09-18T04:37:10;95267.09;;;20.55;76.74
21011;BME280;10663;42.714;23.274;2023-09-18T04:38:41;95273.41;;;20.59;76.24
21011;BME280;10663;42.714;23.274;2023-09-18T04:40:12;95281.06;;;20.83;76.55
21011;BME280;10663;42.714;23.274;2023-09-18T04:41:43;95270.44;;;20.95;75.73
21011;BME280;10663;42.714;23.274;2023-09-18T04:43:14;95276.47;;;20.83;75.74
21011;BME280;10663;42.714;23.274;2023-09-18T04:44:45;95273.78;;;20.83;75.29
21011;BME280;10663;42.714;23.274;2023-09-18T04:46:16;95266.34;;;20.89;75.37
21011;BME280;10663;42.714;23.274;2023-09-18T04:47:47;95272.69;;;20.84;75.79
21011;BME280;10663;42.714;23.274;2023-09-18T04:49:18;95270.94;;;20.88;76.06
21011;BME280;10663;42.714;23.274;2023-09-18T04:50:49;95272.69;;;21.02;76.17
21011;BME280;10663;42.714;23.274;2023-09-18T04:52:20;95270.31;;;21.09;75.85
21011;BME280;10663;42.714;23.274;2023-09-18T04:53:51;95271.28;;;21.21;74.95
21011;BME280;10663;42.714;23.274;2023-09-18T04:55:22;95263.34;;;20.90;74.95
21011;BME280;10663;42.714;23.274;2023-09-18T04:56:53;95268.22;;;20.80;76.10
21011;BME280;10663;42.714;23.274;2023-09-18T04:58:24;95269.50;;;20.74;76.98
21011;BME280;10663;42.714;23.274;2023-09-18T04:59:55;95265.72;;;20.83;77.47
21011;BME280;10663;42.714;23.274;2023-09-18T05:01:26;95262.44;;;21.21;76.95
21011;BME280;10663;42.714;23.274;2023-09-18T05:02:58;95267.59;;;21.60;74.96
21011;BME280;10663;42.714;23.274;2023-09-18T05:04:31;95266.31;;;21.75;74.39
21011;BME280;10663;42.714;23.274;2023-09-18T05:06:02;95268.66;;;21.77;74.04
21011;BME280;10663;42.714;23.274;2023-09-18T05:07:36;95270.41;;;21.81;73.18
21011;BME280;10663;42.714;23.274;2023-09-18T05:09:07;95271.53;;;21.72;73.73
21011;BME280;10663;42.714;23.274;2023-09-18T05:10:38;95264.56;;;21.71;73.74
21011;BME280;10663;42.714;23.274;2023-09-18T05:12:09;95271.19;;;21.90;73.63
21011;BME280;10663;42.714;23.274;2023-09-18T05:13:46;95270.72;;;21.80;73.13
21011;BME280;10663;42.714;23.274;2023-09-18T05:15:17;95270.56;;;22.02;73.02
21011;BME280;10663;42.714;23.274;2023-09-18T05:16:47;95272.25;;;22.07;73.07
21011;BME280;10663;42.714;23.274;2023-09-18T05:18:18;95277.69;;;21.98;73.10
21011;BME280;10663;42.714;23.274;2023-09-18T05:19:49;95284.47;;;22.04;73.13
21011;BME280;10663;42.714;23.274;2023-09-18T05:21:20;95277.34;;;22.08;73.07
21011;BME280;10663;42.714;23.274;2023-09-18T05:22:55;95275.31;;;21.88;73.48
21011;BME280;10663;42.714;23.274;2023-09-18T05:24:26;95280.41;;;21.81;73.20
21011;BME280;10663;42.714;23.274;2023-09-18T05:25:57;95284.63;;;22.08;74.17
21011;BME280;10663;42.714;23.274;2023-09-18T05:27:28;95285.78;;;21.98;73.49
21011;BME280;10663;42.714;23.274;2023-09-18T05:28:59;95281.03;;;21.78;74.18
21011;BME280;10663;42.714;23.274;2023-09-18T05:30:30;95280.91;;;21.74;72.33
21011;BME280;10663;42.714;23.274;2023-09-18T05:32:03;95282.31;;;21.80;74.69
21011;BME280;10663;42.714;23.274;2023-09-18T05:33:34;95280.91;;;21.74;73.78
21011;BME280;10663;42.714;23.274;2023-09-18T05:35:05;95283.13;;;21.72;73.42
21011;BME280;10663;42.714;23.274;2023-09-18T05:36:37;95283.56;;;21.91;74.38
21011;BME280;10663;42.714;23.274;2023-09-18T05:38:11;95276.59;;;21.82;73.58
21011;BME280;10663;42.714;23.274;2023-09-18T05:39:44;95284.81;;;22.02;75.05
21011;BME280;10663;42.714;23.274;2023-09-18T05:41:15;95280.69;;;21.88;72.78
21011;BME280;10663;42.714;23.274;2023-09-18T05:42:45;95283.06;;;21.89;73.81
21011;BME280;10663;42.714;23.274;2023-09-18T05:44:16;95280.06;;;21.91;73.65
21011;BME280;10663;42.714;23.274;2023-09-18T05:45:47;95282.44;;;21.92;73.51
21011;BME280;10663;42.714;23.274;2023-09-18T05:47:20;95285.78;;;21.98;72.27
21011;BME280;10663;42.714;23.274;2023-09-18T05:48:51;95295.31;;;21.78;74.04
21011;BME280;10663;42.714;23.274;2023-09-18T05:50:23;95293.56;;;21.99;73.99
21011;BME280;10663;42.714;23.274;2023-09-18T05:51:58;95296.25;;;21.99;72.76
21011;BME280;10663;42.714;23.274;2023-09-18T05:53:28;95295.06;;;22.26;73.77
21011;BME280;10663;42.714;23.274;2023-09-18T05:55:00;95287.19;;;21.95;73.04
21011;BME280;10663;42.714;23.274;2023-09-18T05:56:31;95289.84;;;22.13;72.91
21011;BME280;10663;42.714;23.274;2023-09-18T05:58:02;95295.28;;;22.04;73.00
21011;BME280;10663;42.714;23.274;2023-09-18T05:59:34;95290.59;;;22.30;73.26
21011;BME280;10663;42.714;23.274;2023-09-18T06:01:06;95286.88;;;22.44;71.83
21011;BME280;10663;42.714;23.274;2023-09-18T06:02:38;95284.88;;;22.61;71.13
21011;BME280;10663;42.714;23.274;2023-09-18T06:04:08;95281.63;;;22.47;71.05
21011;BME280;10663;42.714;23.274;2023-09-18T06:05:39;95281.56;;;22.56;69.75
21011;BME280;10663;42.714;23.274;2023-09-18T06:07:09;95283.06;;;22.74;68.89
21011;BME280;10663;42.714;23.274;2023-09-18T06:08:40;95281.97;;;22.75;68.96
21011;BME280;10663;42.714;23.274;2023-09-18T06:10:11;95280.50;;;22.77;69.52
21011;BME280;10663;42.714;23.274;2023-09-18T06:11:42;95287.78;;;23.06;70.54
21011;BME280;10663;42.714;23.274;2023-09-18T06:13:12;95277.09;;;22.89;69.41
21011;BME280;10663;42.714;23.274;2023-09-18T06:14:43;95287.91;;;22.89;69.27
21011;BME280;10663;42.714;23.274;2023-09-18T06:16:15;95286.59;;;23.16;68.99
21011;BME280;10663;42.714;23.274;2023-09-18T06:17:46;95285.28;;;23.01;67.97
21011;BME280;10663;42.714;23.274;2023-09-18T06:19:16;95285.34;;;22.63;68.88
21011;BME280;10663;42.714;23.274;2023-09-18T06:20:50;95287.16;;;22.51;69.95
21011;BME280;10663;42.714;23.274;2023-09-18T06:22:21;95290.31;;;22.15;70.28
21011;BME280;10663;42.714;23.274;2023-09-18T06:23:51;95292.91;;;22.40;69.06
21011;BME280;10663;42.714;23.274;2023-09-18T06:25:23;95292.78;;;22.37;69.96
21011;BME280;10663;42.714;23.274;2023-09-18T06:26:53;95297.22;;;22.33;69.48
21011;BME280;10663;42.714;23.274;2023-09-18T06:28:24;95293.16;;;22.27;69.55
21011;BME280;10663;42.714;23.274;2023-09-18T06:29:55;95289.72;;;22.47;69.75
21011;BME280;10663;42.714;23.274;2023-09-18T06:31:26;95289.44;;;22.69;70.44
21011;BME280;10663;42.714;23.274;2023-09-18T06:32:56;95296.00;;;22.89;68.85
21011;BME280;10663;42.714;23.274;2023-09-18T06:34:27;95292.16;;;23.20;69.86
21011;BME280;10663;42.714;23.274;2023-09-18T06:35:58;95284.91;;;23.53;67.84
21011;BME280;10663;42.714;23.274;2023-09-18T06:37:29;95283.38;;;23.76;67.78
21011;BME280;10663;42.714;23.274;2023-09-18T06:39:00;95289.38;;;23.49;66.08
21011;BME280;10663;42.714;23.274;2023-09-18T06:40:31;95286.97;;;23.68;65.28
21011;BME280;10663;42.714;23.274;2023-09-18T06:42:01;95284.09;;;23.53;66.51
21011;BME280;10663;42.714;23.274;2023-09-18T06:43:32;95288.84;;;23.56;67.13
21011;BME280;10663;42.714;23.274;2023-09-18T06:45:03;95283.81;;;23.45;66.48
21011;BME280;10663;42.714;23.274;2023-09-18T06:46:37;95292.28;;;23.77;66.76
21011;BME280;10663;42.714;23.274;2023-09-18T06:48:07;95282.03;;;23.70;66.07
21011;BME280;10663;42.714;23.274;2023-09-18T06:49:38;95288.28;;;23.83;67.16
21011;BME280;10663;42.714;23.274;2023-09-18T06:51:09;95296.03;;;23.52;66.06
21011;BME280;10663;42.714;23.274;2023-09-18T06:52:39;95293.72;;;23.62;65.75
21011;BME280;10663;42.714;23.274;2023-09-18T06:54:11;95285.03;;;23.90;66.69
21011;BME280;10663;42.714;23.274;2023-09-18T06:55:41;95288.75;;;23.97;64.43
21011;BME280;10663;42.714;23.274;2023-09-18T06:57:12;95284.94;;;23.65;64.41
21011;BME280;10663;42.714;23.274;2023-09-18T06:58:43;95289.91;;;23.63;65.57
21011;BME280;10663;42.714;23.274;2023-09-18T07:00:14;95295.63;;;23.62;66.01
21011;BME280;10663;42.714;23.274;2023-09-18T07:01:51;95282.88;;;23.83;65.47
21011;BME280;10663;42.714;23.274;2023-09-18T07:03:22;95291.47;;;23.64;65.26
21011;BME280;10663;42.714;23.274;2023-09-18T07:04:53;95283.06;;;23.78;66.08
21011;BME280;10663;42.714;23.274;2023-09-18T07:06:24;95281.97;;;23.58;66.18
21011;BME280;10663;42.714;23.274;2023-09-18T07:07:55;95295.97;;;23.60;65.67
21011;BME280;10663;42.714;23.274;2023-09-18T07:09:27;95288.78;;;23.64;64.67
21011;BME280;10663;42.714;23.274;2023-09-18T07:10:58;95281.84;;;23.87;64.96
21011;BME280;10663;42.714;23.274;2023-09-18T07:12:29;95277.94;;;23.97;64.51
21011;BME280;10663;42.714;23.274;2023-09-18T07:14:00;95283.31;;;23.85;64.52
21011;BME280;10663;42.714;23.274;2023-09-18T07:15:31;95287.16;;;23.96;64.52
21011;BME280;10663;42.714;23.274;2023-09-18T07:17:02;95283.44;;;23.88;65.74
21011;BME280;10663;42.714;23.274;2023-09-18T07:18:33;95286.50;;;23.99;62.94
21011;BME280;10663;42.714;23.274;2023-09-18T07:20:04;95283.69;;;24.08;64.09
21011;BME280;10663;42.714;23.274;2023-09-18T07:21:44;95292.53;;;23.72;64.07
21011;BME280;10663;42.714;23.274;2023-09-18T07:23:15;95288.38;;;23.74;63.78
21011;BME280;10663;42.714;23.274;2023-09-18T07:24:45;95290.34;;;23.98;64.25
21011;BME280;10663;42.714;23.274;2023-09-18T07:26:16;95286.38;;;23.96;63.07
21011;BME280;10663;42.714;23.274;2023-09-18T07:27:47;95297.69;;;23.02;65.34
21011;BME280;10663;42.714;23.274;2023-09-18T07:29:18;95291.38;;;23.19;65.79
21011;BME280;10663;42.714;23.274;2023-09-18T07:30:49;95302.91;;;23.28;65.16
21011;BME280;10663;42.714;23.274;2023-09-18T07:32:19;95295.56;;;23.49;65.39
21011;BME280;10663;42.714;23.274;2023-09-18T07:33:50;95291.41;;;23.73;64.84
21011;BME280;10663;42.714;23.274;2023-09-18T07:35:23;95288.28;;;23.95;63.70
21011;BME280;10663;42.714;23.274;2023-09-18T07:36:54;95290.03;;;23.67;63.20
21011;BME280;10663;42.714;23.274;2023-09-18T07:38:26;95293.53;;;23.46;64.89
21011;BME280;10663;42.714;23.274;2023-09-18T07:39:57;95293.94;;;23.57;64.03
21011;BME280;10663;42.714;23.274;2023-09-18T07:41:28;95291.94;;;23.04;64.68
21011;BME280;10663;42.714;23.274;2023-09-18T07:42:59;95286.34;;;23.09;64.92
21011;BME280;10663;42.714;23.274;2023-09-18T07:44:29;95284.81;;;23.41;67.42
21011;BME280;10663;42.714;23.274;2023-09-18T07:46:00;95291.59;;;24.01;62.55
21011;BME280;10663;42.714;23.274;2023-09-18T07:47:32;95288.06;;;24.21;64.25
21011;BME280;10663;42.714;23.274;2023-09-18T07:49:03;95288.88;;;24.01;62.45
21011;BME280;10663;42.714;23.274;2023-09-18T07:50:36;95289.91;;;24.08;62.20
21011;BME280;10663;42.714;23.274;2023-09-18T07:52:07;95293.78;;;24.32;63.33
21011;BME280;10663;42.714;23.274;2023-09-18T07:53:38;95285.34;;;24.21;61.45
21011;BME280;10663;42.714;23.274;2023-09-18T07:55:09;95284.22;;;23.35;63.65
21011;BME280;10663;42.714;23.274;2023-09-18T07:56:40;95283.19;;;23.48;64.05
21011;BME280;10663;42.714;23.274;2023-09-18T07:58:11;95284.56;;;23.87;64.20